Teo, Spain
Current Conditions -  °F | °C
As of 7:00 PM on Saturday 22 Nov 2014 (Local Time) from LEST Reporting Station
Light Rain Light Rain  
Wind Chill: 52°   Ceiling: 600
Heat Index: 52°   Visibility: 6mi
Dew Point: 52°   Wind: 2mph
Humidity: 100%   Direction: NA
Pressure: 29.88"   Gusts: NA
Location:  42.75°N, 8.5°W
Report Text: LEST 221800Z VRB02KT 9000 -RA FEW004 BKN006 OVC040 11/11 Q1012 TEMPO 3000 RA
Loading
Personal Weather Stations






























Interactive Weather Map New forecast layout! Learn more

10-Day Weather Forecast

Advertisements
Track Severe Weather on mobile